sensor_id;sensor_type;location;lat;lon;timestamp;P1;durP1;ratioP1;P2;durP2;ratioP2
26271;SDS011;13997;48.902;12.472;2023-10-09T00:01:05;8.80;;;3.17;;
26271;SDS011;13997;48.902;12.472;2023-10-09T00:03:46;5.72;;;3.10;;
26271;SDS011;13997;48.902;12.472;2023-10-09T00:06:18;5.32;;;2.90;;
26271;SDS011;13997;48.902;12.472;2023-10-09T00:08:55;4.72;;;3.10;;
26271;SDS011;13997;48.902;12.472;2023-10-09T00:11:20;5.32;;;3.22;;
26271;SDS011;13997;48.902;12.472;2023-10-09T00:13:46;5.20;;;3.17;;
26271;SDS011;13997;48.902;12.472;2023-10-09T00:16:22;4.60;;;2.88;;
26271;SDS011;13997;48.902;12.472;2023-10-09T00:19:02;4.32;;;2.83;;
26271;SDS011;13997;48.902;12.472;2023-10-09T00:21:55;6.00;;;2.92;;
26271;SDS011;13997;48.902;12.472;2023-10-09T00:24:20;7.28;;;3.72;;
26271;SDS011;13997;48.902;12.472;2023-10-09T00:26:52;6.05;;;3.65;;
26271;SDS011;13997;48.902;12.472;2023-10-09T00:29:36;5.45;;;3.20;;
26271;SDS011;13997;48.902;12.472;2023-10-09T00:32:09;6.82;;;3.45;;
26271;SDS011;13997;48.902;12.472;2023-10-09T00:34:57;7.30;;;3.40;;
26271;SDS011;13997;48.902;12.472;2023-10-09T00:37:24;7.00;;;3.63;;
26271;SDS011;13997;48.902;12.472;2023-10-09T00:39:52;6.35;;;3.08;;
26271;SDS011;13997;48.902;12.472;2023-10-09T00:42:24;6.07;;;3.30;;
26271;SDS011;13997;48.902;12.472;2023-10-09T00:45:01;6.43;;;3.40;;
26271;SDS011;13997;48.902;12.472;2023-10-09T00:47:30;4.97;;;3.63;;
26271;SDS011;13997;48.902;12.472;2023-10-09T00:50:03;6.22;;;3.72;;
26271;SDS011;13997;48.902;12.472;2023-10-09T00:52:39;4.97;;;3.38;;
26271;SDS011;13997;48.902;12.472;2023-10-09T00:55:16;6.88;;;3.78;;
26271;SDS011;13997;48.902;12.472;2023-10-09T00:57:52;6.43;;;3.58;;
26271;SDS011;13997;48.902;12.472;2023-10-09T01:00:24;4.82;;;3.10;;
26271;SDS011;13997;48.902;12.472;2023-10-09T01:03:00;7.72;;;3.47;;
26271;SDS011;13997;48.902;12.472;2023-10-09T01:05:42;6.03;;;3.42;;
26271;SDS011;13997;48.902;12.472;2023-10-09T01:08:28;7.53;;;3.30;;
26271;SDS011;13997;48.902;12.472;2023-10-09T01:11:06;6.22;;;3.65;;
26271;SDS011;13997;48.902;12.472;2023-10-09T01:13:36;6.45;;;3.78;;
26271;SDS011;13997;48.902;12.472;2023-10-09T01:16:11;6.40;;;3.58;;
26271;SDS011;13997;48.902;12.472;2023-10-09T01:18:45;7.00;;;4.32;;
26271;SDS011;13997;48.902;12.472;2023-10-09T01:21:14;6.32;;;4.13;;
26271;SDS011;13997;48.902;12.472;2023-10-09T01:23:41;6.38;;;4.28;;
26271;SDS011;13997;48.902;12.472;2023-10-09T01:26:34;9.27;;;4.70;;
26271;SDS011;13997;48.902;12.472;2023-10-09T01:29:15;11.05;;;4.55;;
26271;SDS011;13997;48.902;12.472;2023-10-09T01:31:52;7.25;;;4.20;;
26271;SDS011;13997;48.902;12.472;2023-10-09T01:34:25;8.55;;;3.95;;
26271;SDS011;13997;48.902;12.472;2023-10-09T01:42:15;8.55;;;4.28;;
26271;SDS011;13997;48.902;12.472;2023-10-09T01:44:59;10.85;;;4.93;;
26271;SDS011;13997;48.902;12.472;2023-10-09T01:47:41;8.73;;;4.00;;
26271;SDS011;13997;48.902;12.472;2023-10-09T01:50:16;7.88;;;3.83;;
26271;SDS011;13997;48.902;12.472;2023-10-09T01:52:49;11.10;;;3.90;;
26271;SDS011;13997;48.902;12.472;2023-10-09T01:55:16;7.88;;;4.45;;
26271;SDS011;13997;48.902;12.472;2023-10-09T01:57:59;6.30;;;3.80;;
26271;SDS011;13997;48.902;12.472;2023-10-09T02:00:30;6.90;;;4.38;;
26271;SDS011;13997;48.902;12.472;2023-10-09T02:03:00;6.45;;;4.40;;
26271;SDS011;13997;48.902;12.472;2023-10-09T02:05:30;7.93;;;4.45;;
26271;SDS011;13997;48.902;12.472;2023-10-09T02:07:58;10.30;;;4.68;;
26271;SDS011;13997;48.902;12.472;2023-10-09T02:10:29;6.30;;;4.00;;
26271;SDS011;13997;48.902;12.472;2023-10-09T02:13:04;9.13;;;4.47;;
26271;SDS011;13997;48.902;12.472;2023-10-09T02:15:32;6.93;;;4.30;;
26271;SDS011;13997;48.902;12.472;2023-10-09T02:18:08;11.80;;;4.10;;
26271;SDS011;13997;48.902;12.472;2023-10-09T02:20:49;6.63;;;3.90;;
26271;SDS011;13997;48.902;12.472;2023-10-09T02:23:25;10.30;;;4.05;;
26271;SDS011;13997;48.902;12.472;2023-10-09T02:26:11;6.55;;;3.85;;
26271;SDS011;13997;48.902;12.472;2023-10-09T02:28:44;7.72;;;4.50;;
26271;SDS011;13997;48.902;12.472;2023-10-09T02:31:17;10.55;;;4.50;;
26271;SDS011;13997;48.902;12.472;2023-10-09T02:33:47;10.10;;;4.32;;
26271;SDS011;13997;48.902;12.472;2023-10-09T02:36:15;7.85;;;3.95;;
26271;SDS011;13997;48.902;12.472;2023-10-09T02:38:41;7.65;;;3.95;;
26271;SDS011;13997;48.902;12.472;2023-10-09T02:41:08;6.40;;;4.10;;
26271;SDS011;13997;48.902;12.472;2023-10-09T02:43:36;9.73;;;4.30;;
26271;SDS011;13997;48.902;12.472;2023-10-09T02:46:20;11.85;;;5.68;;
26271;SDS011;13997;48.902;12.472;2023-10-09T02:48:54;9.38;;;5.28;;
26271;SDS011;13997;48.902;12.472;2023-10-09T02:51:21;9.18;;;5.43;;
26271;SDS011;13997;48.902;12.472;2023-10-09T02:53:58;14.48;;;4.85;;
26271;SDS011;13997;48.902;12.472;2023-10-09T02:56:31;9.33;;;5.63;;
26271;SDS011;13997;48.902;12.472;2023-10-09T02:59:08;7.40;;;4.68;;
26271;SDS011;13997;48.902;12.472;2023-10-09T03:01:36;10.73;;;5.15;;
26271;SDS011;13997;48.902;12.472;2023-10-09T03:04:06;11.27;;;4.45;;
26271;SDS011;13997;48.902;12.472;2023-10-09T03:06:36;7.95;;;4.40;;
26271;SDS011;13997;48.902;12.472;2023-10-09T03:09:05;7.32;;;4.28;;
26271;SDS011;13997;48.902;12.472;2023-10-09T03:11:48;9.52;;;4.35;;
26271;SDS011;13997;48.902;12.472;2023-10-09T03:14:35;8.43;;;4.13;;
26271;SDS011;13997;48.902;12.472;2023-10-09T03:17:06;7.65;;;4.60;;
26271;SDS011;13997;48.902;12.472;2023-10-09T03:19:36;7.15;;;4.82;;
26271;SDS011;13997;48.902;12.472;2023-10-09T03:22:05;7.07;;;4.32;;
26271;SDS011;13997;48.902;12.472;2023-10-09T03:24:35;10.48;;;5.13;;
26271;SDS011;13997;48.902;12.472;2023-10-09T03:27:01;6.95;;;4.80;;
26271;SDS011;13997;48.902;12.472;2023-10-09T03:29:27;12.73;;;5.53;;
26271;SDS011;13997;48.902;12.472;2023-10-09T03:31:53;9.73;;;5.53;;
26271;SDS011;13997;48.902;12.472;2023-10-09T03:34:21;8.73;;;5.53;;
26271;SDS011;13997;48.902;12.472;2023-10-09T03:36:47;7.18;;;5.18;;
26271;SDS011;13997;48.902;12.472;2023-10-09T03:39:13;8.68;;;5.72;;
26271;SDS011;13997;48.902;12.472;2023-10-09T03:41:58;9.32;;;5.32;;
26271;SDS011;13997;48.902;12.472;2023-10-09T03:44:24;9.57;;;5.40;;
26271;SDS011;13997;48.902;12.472;2023-10-09T03:46:53;10.07;;;4.90;;
26271;SDS011;13997;48.902;12.472;2023-10-09T03:49:19;10.25;;;5.72;;
26271;SDS011;13997;48.902;12.472;2023-10-09T03:54:16;7.22;;;4.80;;
26271;SDS011;13997;48.902;12.472;2023-10-09T03:56:45;9.70;;;4.93;;
26271;SDS011;13997;48.902;12.472;2023-10-09T03:59:15;9.00;;;5.25;;
26271;SDS011;13997;48.902;12.472;2023-10-09T04:01:45;15.38;;;5.85;;
26271;SDS011;13997;48.902;12.472;2023-10-09T04:04:12;7.72;;;5.03;;
26271;SDS011;13997;48.902;12.472;2023-10-09T04:06:39;14.80;;;9.35;;
26271;SDS011;13997;48.902;12.472;2023-10-09T04:09:08;12.23;;;6.40;;
26271;SDS011;13997;48.902;12.472;2023-10-09T04:11:44;8.05;;;5.28;;
26271;SDS011;13997;48.902;12.472;2023-10-09T04:14:14;7.75;;;5.07;;
26271;SDS011;13997;48.902;12.472;2023-10-09T04:16:58;11.38;;;6.20;;
26271;SDS011;13997;48.902;12.472;2023-10-09T04:19:49;10.18;;;6.40;;
26271;SDS011;13997;48.902;12.472;2023-10-09T04:22:35;13.27;;;6.07;;
26271;SDS011;13997;48.902;12.472;2023-10-09T04:25:07;10.07;;;5.88;;
26271;SDS011;13997;48.902;12.472;2023-10-09T04:27:43;12.18;;;6.75;;
26271;SDS011;13997;48.902;12.472;2023-10-09T04:30:11;13.57;;;7.00;;
26271;SDS011;13997;48.902;12.472;2023-10-09T04:32:40;12.00;;;6.75;;
26271;SDS011;13997;48.902;12.472;2023-10-09T04:35:09;10.13;;;6.82;;
26271;SDS011;13997;48.902;12.472;2023-10-09T04:37:46;12.27;;;7.13;;
26271;SDS011;13997;48.902;12.472;2023-10-09T04:43:01;11.38;;;7.07;;
26271;SDS011;13997;48.902;12.472;2023-10-09T04:45:31;16.38;;;7.18;;
26271;SDS011;13997;48.902;12.472;2023-10-09T04:48:24;9.15;;;5.88;;
26271;SDS011;13997;48.902;12.472;2023-10-09T04:51:03;12.57;;;6.88;;
26271;SDS011;13997;48.902;12.472;2023-10-09T04:53:59;13.88;;;7.03;;
26271;SDS011;13997;48.902;12.472;2023-10-09T04:56:38;13.15;;;6.97;;
26271;SDS011;13997;48.902;12.472;2023-10-09T04:59:16;12.98;;;7.22;;
26271;SDS011;13997;48.902;12.472;2023-10-09T05:01:50;14.85;;;6.88;;
26271;SDS011;13997;48.902;12.472;2023-10-09T07:32:35;14.48;;;7.13;;
26271;SDS011;13997;48.902;12.472;2023-10-09T07:35:01;12.30;;;7.30;;
26271;SDS011;13997;48.902;12.472;2023-10-09T07:37:29;15.75;;;7.00;;
26271;SDS011;13997;48.902;12.472;2023-10-09T07:40:01;14.38;;;7.45;;
26271;SDS011;13997;48.902;12.472;2023-10-09T07:42:32;13.20;;;7.40;;
26271;SDS011;13997;48.902;12.472;2023-10-09T07:45:06;13.75;;;7.43;;
26271;SDS011;13997;48.902;12.472;2023-10-09T07:47:48;31.73;;;15.93;;
26271;SDS011;13997;48.902;12.472;2023-10-09T07:50:27;20.60;;;10.40;;
26271;SDS011;13997;48.902;12.472;2023-10-09T07:53:08;16.95;;;7.82;;
26271;SDS011;13997;48.902;12.472;2023-10-09T07:55:40;13.63;;;7.13;;
26271;SDS011;13997;48.902;12.472;2023-10-09T07:58:13;19.13;;;9.32;;
26271;SDS011;13997;48.902;12.472;2023-10-09T08:00:39;21.13;;;9.43;;
26271;SDS011;13997;48.902;12.472;2023-10-09T08:03:27;16.38;;;8.57;;
26271;SDS011;13997;48.902;12.472;2023-10-09T08:05:57;20.70;;;8.68;;
26271;SDS011;13997;48.902;12.472;2023-10-09T08:08:43;17.13;;;7.65;;
26271;SDS011;13997;48.902;12.472;2023-10-09T08:11:31;19.75;;;8.15;;
26271;SDS011;13997;48.902;12.472;2023-10-09T08:14:09;14.65;;;7.53;;
26271;SDS011;13997;48.902;12.472;2023-10-09T08:16:55;15.60;;;7.55;;
26271;SDS011;13997;48.902;12.472;2023-10-09T08:19:40;15.95;;;8.18;;
26271;SDS011;13997;48.902;12.472;2023-10-09T08:22:23;19.48;;;8.27;;
26271;SDS011;13997;48.902;12.472;2023-10-09T08:24:49;15.48;;;7.07;;
26271;SDS011;13997;48.902;12.472;2023-10-09T08:27:30;12.63;;;6.82;;
26271;SDS011;13997;48.902;12.472;2023-10-09T08:29:59;14.38;;;7.32;;
26271;SDS011;13997;48.902;12.472;2023-10-09T08:32:44;12.68;;;7.25;;
26271;SDS011;13997;48.902;12.472;2023-10-09T08:35:34;16.55;;;7.07;;
26271;SDS011;13997;48.902;12.472;2023-10-09T08:38:12;13.90;;;6.78;;
26271;SDS011;13997;48.902;12.472;2023-10-09T08:40:40;16.98;;;7.45;;
26271;SDS011;13997;48.902;12.472;2023-10-09T08:43:12;18.15;;;7.00;;
26271;SDS011;13997;48.902;12.472;2023-10-09T08:45:48;22.08;;;8.60;;
26271;SDS011;13997;48.902;12.472;2023-10-09T08:48:16;13.07;;;6.70;;
26271;SDS011;13997;48.902;12.472;2023-10-09T08:50:46;13.32;;;7.15;;
26271;SDS011;13997;48.902;12.472;2023-10-09T08:53:14;17.95;;;7.13;;
26271;SDS011;13997;48.902;12.472;2023-10-09T08:55:41;13.07;;;6.97;;
26271;SDS011;13997;48.902;12.472;2023-10-09T08:58:08;14.30;;;6.95;;
26271;SDS011;13997;48.902;12.472;2023-10-09T09:00:45;20.63;;;6.65;;
26271;SDS011;13997;48.902;12.472;2023-10-09T09:03:15;20.15;;;7.22;;
26271;SDS011;13997;48.902;12.472;2023-10-09T09:05:45;18.77;;;6.72;;
26271;SDS011;13997;48.902;12.472;2023-10-09T09:08:23;22.23;;;7.20;;
26271;SDS011;13997;48.902;12.472;2023-10-09T09:10:57;20.30;;;7.15;;
26271;SDS011;13997;48.902;12.472;2023-10-09T09:14:01;16.50;;;6.43;;
26271;SDS011;13997;48.902;12.472;2023-10-09T09:16:30;16.60;;;6.70;;
26271;SDS011;13997;48.902;12.472;2023-10-09T09:19:00;13.52;;;6.60;;
26271;SDS011;13997;48.902;12.472;2023-10-09T09:21:42;17.08;;;5.78;;
26271;SDS011;13997;48.902;12.472;2023-10-09T09:24:13;14.15;;;6.65;;
26271;SDS011;13997;48.902;12.472;2023-10-09T09:26:52;16.67;;;6.28;;
26271;SDS011;13997;48.902;12.472;2023-10-09T09:32:06;13.73;;;6.18;;
26271;SDS011;13997;48.902;12.472;2023-10-09T09:34:52;16.08;;;6.10;;
26271;SDS011;13997;48.902;12.472;2023-10-09T09:37:26;22.58;;;7.43;;
26271;SDS011;13997;48.902;12.472;2023-10-09T09:40:00;24.45;;;5.93;;
26271;SDS011;13997;48.902;12.472;2023-10-09T09:42:42;19.42;;;6.68;;
26271;SDS011;13997;48.902;12.472;2023-10-09T09:45:13;18.33;;;6.03;;
26271;SDS011;13997;48.902;12.472;2023-10-09T09:47:39;24.88;;;6.38;;
26271;SDS011;13997;48.902;12.472;2023-10-09T09:50:11;20.65;;;6.30;;
26271;SDS011;13997;48.902;12.472;2023-10-09T09:52:47;16.70;;;5.93;;
26271;SDS011;13997;48.902;12.472;2023-10-09T09:55:15;13.35;;;6.28;;
26271;SDS011;13997;48.902;12.472;2023-10-09T09:57:46;13.13;;;5.68;;
26271;SDS011;13997;48.902;12.472;2023-10-09T10:00:16;15.75;;;5.97;;
26271;SDS011;13997;48.902;12.472;2023-10-09T10:03:05;16.35;;;5.57;;
26271;SDS011;13997;48.902;12.472;2023-10-09T10:05:34;15.00;;;5.03;;
26271;SDS011;13997;48.902;12.472;2023-10-09T10:08:00;18.30;;;5.20;;
26271;SDS011;13997;48.902;12.472;2023-10-09T10:10:33;14.35;;;4.35;;
26271;SDS011;13997;48.902;12.472;2023-10-09T10:12:59;17.65;;;5.53;;
26271;SDS011;13997;48.902;12.472;2023-10-09T10:16:09;17.27;;;5.68;;
26271;SDS011;13997;48.902;12.472;2023-10-09T10:18:21;15.32;;;5.20;;
26271;SDS011;13997;48.902;12.472;2023-10-09T10:21:10;11.65;;;4.82;;
26271;SDS011;13997;48.902;12.472;2023-10-09T10:23:54;13.65;;;4.97;;
26271;SDS011;13997;48.902;12.472;2023-10-09T10:26:30;13.30;;;5.63;;
26271;SDS011;13997;48.902;12.472;2023-10-09T10:34:21;12.70;;;5.25;;
26271;SDS011;13997;48.902;12.472;2023-10-09T10:36:51;14.10;;;4.72;;
26271;SDS011;13997;48.902;12.472;2023-10-09T10:39:23;16.02;;;5.10;;
26271;SDS011;13997;48.902;12.472;2023-10-09T10:42:08;21.50;;;5.20;;
26271;SDS011;13997;48.902;12.472;2023-10-09T10:44:34;13.57;;;5.57;;
26271;SDS011;13997;48.902;12.472;2023-10-09T10:47:06;17.90;;;6.38;;
26271;SDS011;13997;48.902;12.472;2023-10-09T10:49:53;15.50;;;6.88;;
26271;SDS011;13997;48.902;12.472;2023-10-09T10:52:45;22.75;;;6.82;;
26271;SDS011;13997;48.902;12.472;2023-10-09T10:55:22;17.60;;;4.97;;
26271;SDS011;13997;48.902;12.472;2023-10-09T10:58:00;12.90;;;4.88;;
26271;SDS011;13997;48.902;12.472;2023-10-09T11:00:26;11.65;;;4.47;;
26271;SDS011;13997;48.902;12.472;2023-10-09T11:03:16;10.00;;;4.93;;
26271;SDS011;13997;48.902;12.472;2023-10-09T11:05:45;19.10;;;5.55;;
26271;SDS011;13997;48.902;12.472;2023-10-09T11:08:16;15.23;;;5.68;;
26271;SDS011;13997;48.902;12.472;2023-10-09T11:10:47;20.08;;;5.93;;
26271;SDS011;13997;48.902;12.472;2023-10-09T11:13:22;15.98;;;6.88;;
26271;SDS011;13997;48.902;12.472;2023-10-09T11:16:17;15.75;;;5.53;;
26271;SDS011;13997;48.902;12.472;2023-10-09T11:19:06;16.50;;;6.60;;
26271;SDS011;13997;48.902;12.472;2023-10-09T11:24:30;14.40;;;5.88;;
26271;SDS011;13997;48.902;12.472;2023-10-09T11:27:00;18.38;;;6.50;;
26271;SDS011;13997;48.902;12.472;2023-10-09T11:29:34;12.90;;;6.40;;
26271;SDS011;13997;48.902;12.472;2023-10-09T11:32:07;21.08;;;6.00;;
26271;SDS011;13997;48.902;12.472;2023-10-09T11:34:36;18.75;;;6.57;;
26271;SDS011;13997;48.902;12.472;2023-10-09T11:37:05;17.30;;;6.35;;
26271;SDS011;13997;48.902;12.472;2023-10-09T11:39:38;18.00;;;7.35;;
26271;SDS011;13997;48.902;12.472;2023-10-09T11:42:19;15.32;;;7.30;;
26271;SDS011;13997;48.902;12.472;2023-10-09T11:45:06;19.70;;;7.13;;
26271;SDS011;13997;48.902;12.472;2023-10-09T11:47:46;16.55;;;6.40;;
26271;SDS011;13997;48.902;12.472;2023-10-09T11:53:09;15.27;;;6.18;;
26271;SDS011;13997;48.902;12.472;2023-10-09T11:55:46;16.20;;;5.78;;
26271;SDS011;13997;48.902;12.472;2023-10-09T11:58:14;16.80;;;7.32;;
26271;SDS011;13997;48.902;12.472;2023-10-09T12:00:47;20.52;;;6.95;;
26271;SDS011;13997;48.902;12.472;2023-10-09T12:03:28;22.52;;;8.05;;
26271;SDS011;13997;48.902;12.472;2023-10-09T12:05:55;19.42;;;6.88;;
26271;SDS011;13997;48.902;12.472;2023-10-09T12:08:31;16.15;;;6.10;;
26271;SDS011;13997;48.902;12.472;2023-10-09T12:10:57;18.75;;;6.90;;
26271;SDS011;13997;48.902;12.472;2023-10-09T12:13:23;16.50;;;6.95;;
26271;SDS011;13997;48.902;12.472;2023-10-09T12:15:50;15.55;;;6.07;;
26271;SDS011;13997;48.902;12.472;2023-10-09T12:18:20;21.58;;;6.97;;
26271;SDS011;13997;48.902;12.472;2023-10-09T12:20:48;16.52;;;7.40;;
26271;SDS011;13997;48.902;12.472;2023-10-09T12:23:19;22.63;;;7.37;;
26271;SDS011;13997;48.902;12.472;2023-10-09T12:25:49;17.85;;;6.53;;
26271;SDS011;13997;48.902;12.472;2023-10-09T12:28:16;16.73;;;6.03;;
26271;SDS011;13997;48.902;12.472;2023-10-09T12:30:45;16.13;;;6.00;;
26271;SDS011;13997;48.902;12.472;2023-10-09T12:33:15;17.90;;;6.57;;
26271;SDS011;13997;48.902;12.472;2023-10-09T12:35:42;12.73;;;5.82;;
26271;SDS011;13997;48.902;12.472;2023-10-09T12:38:10;17.17;;;5.95;;
26271;SDS011;13997;48.902;12.472;2023-10-09T12:40:37;15.75;;;6.40;;
26271;SDS011;13997;48.902;12.472;2023-10-09T12:43:06;24.33;;;6.25;;
26271;SDS011;13997;48.902;12.472;2023-10-09T12:45:40;14.63;;;6.45;;
26271;SDS011;13997;48.902;12.472;2023-10-09T12:48:06;17.35;;;6.13;;
26271;SDS011;13997;48.902;12.472;2023-10-09T12:50:35;17.95;;;6.75;;
26271;SDS011;13997;48.902;12.472;2023-10-09T12:53:07;15.85;;;6.43;;
26271;SDS011;13997;48.902;12.472;2023-10-09T12:55:40;13.45;;;6.43;;
26271;SDS011;13997;48.902;12.472;2023-10-09T12:58:10;18.75;;;6.20;;
26271;SDS011;13997;48.902;12.472;2023-10-09T13:00:40;23.67;;;7.20;;
26271;SDS011;13997;48.902;12.472;2023-10-09T13:03:13;14.85;;;5.68;;
26271;SDS011;13997;48.902;12.472;2023-10-09T13:05:46;16.00;;;6.65;;
26271;SDS011;13997;48.902;12.472;2023-10-09T13:10:56;20.70;;;7.10;;
26271;SDS011;13997;48.902;12.472;2023-10-09T13:13:28;16.80;;;6.55;;
26271;SDS011;13997;48.902;12.472;2023-10-09T13:16:16;19.75;;;8.27;;
26271;SDS011;13997;48.902;12.472;2023-10-09T13:18:52;19.45;;;7.25;;
26271;SDS011;13997;48.902;12.472;2023-10-09T13:23:45;15.38;;;6.65;;
26271;SDS011;13997;48.902;12.472;2023-10-09T13:26:14;21.23;;;6.47;;
26271;SDS011;13997;48.902;12.472;2023-10-09T13:28:44;18.52;;;6.35;;
26271;SDS011;13997;48.902;12.472;2023-10-09T13:31:11;17.55;;;6.72;;
26271;SDS011;13997;48.902;12.472;2023-10-09T13:33:41;20.60;;;6.93;;
26271;SDS011;13997;48.902;12.472;2023-10-09T13:36:08;24.95;;;8.40;;
26271;SDS011;13997;48.902;12.472;2023-10-09T13:38:54;26.35;;;9.98;;
26271;SDS011;13997;48.902;12.472;2023-10-09T13:41:21;21.13;;;7.20;;
26271;SDS011;13997;48.902;12.472;2023-10-09T13:43:51;16.08;;;6.65;;
26271;SDS011;13997;48.902;12.472;2023-10-09T13:46:16;20.38;;;7.57;;
26271;SDS011;13997;48.902;12.472;2023-10-09T13:48:43;16.30;;;7.22;;
26271;SDS011;13997;48.902;12.472;2023-10-09T13:51:10;21.52;;;7.63;;
26271;SDS011;13997;48.902;12.472;2023-10-09T13:53:43;17.48;;;6.80;;
26271;SDS011;13997;48.902;12.472;2023-10-09T13:56:19;19.83;;;6.97;;
26271;SDS011;13997;48.902;12.472;2023-10-09T14:01:16;19.00;;;7.35;;
26271;SDS011;13997;48.902;12.472;2023-10-09T14:03:57;14.32;;;7.47;;
26271;SDS011;13997;48.902;12.472;2023-10-09T14:06:24;16.88;;;6.32;;
26271;SDS011;13997;48.902;12.472;2023-10-09T14:08:59;20.88;;;6.45;;
26271;SDS011;13997;48.902;12.472;2023-10-09T14:11:30;22.10;;;6.13;;
26271;SDS011;13997;48.902;12.472;2023-10-09T14:13:56;14.90;;;5.60;;
26271;SDS011;13997;48.902;12.472;2023-10-09T14:16:25;15.30;;;4.78;;
26271;SDS011;13997;48.902;12.472;2023-10-09T14:18:54;9.40;;;4.40;;
26271;SDS011;13997;48.902;12.472;2023-10-09T14:21:26;15.50;;;4.65;;
26271;SDS011;13997;48.902;12.472;2023-10-09T14:23:58;16.88;;;5.20;;
26271;SDS011;13997;48.902;12.472;2023-10-09T14:26:27;24.42;;;6.07;;
26271;SDS011;13997;48.902;12.472;2023-10-09T14:28:54;22.10;;;6.35;;
26271;SDS011;13997;48.902;12.472;2023-10-09T14:31:22;22.38;;;6.63;;
26271;SDS011;13997;48.902;12.472;2023-10-09T14:33:55;22.50;;;5.07;;
26271;SDS011;13997;48.902;12.472;2023-10-09T14:36:21;17.38;;;4.68;;
26271;SDS011;13997;48.902;12.472;2023-10-09T14:38:51;16.23;;;5.47;;
26271;SDS011;13997;48.902;12.472;2023-10-09T14:41:18;16.17;;;4.85;;
26271;SDS011;13997;48.902;12.472;2023-10-09T14:43:47;19.52;;;4.90;;
26271;SDS011;13997;48.902;12.472;2023-10-09T14:46:13;23.65;;;5.25;;
26271;SDS011;13997;48.902;12.472;2023-10-09T14:48:39;20.02;;;4.50;;
26271;SDS011;13997;48.902;12.472;2023-10-09T14:51:06;16.83;;;4.70;;
26271;SDS011;13997;48.902;12.472;2023-10-09T14:53:35;19.05;;;5.25;;
26271;SDS011;13997;48.902;12.472;2023-10-09T14:56:00;14.95;;;4.85;;
26271;SDS011;13997;48.902;12.472;2023-10-09T14:58:28;14.43;;;5.30;;
26271;SDS011;13997;48.902;12.472;2023-10-09T15:00:55;19.83;;;5.05;;
26271;SDS011;13997;48.902;12.472;2023-10-09T15:03:21;18.35;;;6.00;;
26271;SDS011;13997;48.902;12.472;2023-10-09T15:05:48;23.98;;;5.80;;
26271;SDS011;13997;48.902;12.472;2023-10-09T15:08:14;32.28;;;13.57;;
26271;SDS011;13997;48.902;12.472;2023-10-09T15:13:13;44.22;;;16.38;;
26271;SDS011;13997;48.902;12.472;2023-10-09T15:15:42;32.67;;;15.48;;
26271;SDS011;13997;48.902;12.472;2023-10-09T15:18:09;38.05;;;14.88;;
26271;SDS011;13997;48.902;12.472;2023-10-09T15:20:38;31.80;;;13.02;;
26271;SDS011;13997;48.902;12.472;2023-10-09T15:23:05;75.70;;;32.38;;
26271;SDS011;13997;48.902;12.472;2023-10-09T15:25:31;68.40;;;30.58;;
26271;SDS011;13997;48.902;12.472;2023-10-09T15:27:56;81.40;;;39.85;;
26271;SDS011;13997;48.902;12.472;2023-10-09T15:30:22;75.57;;;34.60;;
26271;SDS011;13997;48.902;12.472;2023-10-09T15:32:48;53.33;;;25.08;;
26271;SDS011;13997;48.902;12.472;2023-10-09T15:35:14;64.63;;;27.08;;
26271;SDS011;13997;48.902;12.472;2023-10-09T15:37:40;126.43;;;53.38;;
26271;SDS011;13997;48.902;12.472;2023-10-09T15:40:06;102.05;;;46.30;;
26271;SDS011;13997;48.902;12.472;2023-10-09T15:42:38;39.30;;;15.30;;
26271;SDS011;13997;48.902;12.472;2023-10-09T15:45:08;29.52;;;10.30;;
26271;SDS011;13997;48.902;12.472;2023-10-09T15:47:34;20.77;;;7.30;;
26271;SDS011;13997;48.902;12.472;2023-10-09T15:50:02;22.73;;;6.82;;
26271;SDS011;13997;48.902;12.472;2023-10-09T15:52:34;18.77;;;6.13;;
26271;SDS011;13997;48.902;12.472;2023-10-09T15:55:00;20.88;;;6.57;;
26271;SDS011;13997;48.902;12.472;2023-10-09T15:57:26;20.10;;;7.18;;
26271;SDS011;13997;48.902;12.472;2023-10-09T15:59:51;25.05;;;7.63;;
26271;SDS011;13997;48.902;12.472;2023-10-09T16:02:17;24.38;;;7.30;;
26271;SDS011;13997;48.902;12.472;2023-10-09T16:04:43;43.63;;;16.88;;
26271;SDS011;13997;48.902;12.472;2023-10-09T16:07:10;26.38;;;8.93;;
26271;SDS011;13997;48.902;12.472;2023-10-09T16:09:35;33.72;;;10.68;;
26271;SDS011;13997;48.902;12.472;2023-10-09T16:12:04;46.50;;;15.95;;
26271;SDS011;13997;48.902;12.472;2023-10-09T16:14:35;21.90;;;8.97;;
26271;SDS011;13997;48.902;12.472;2023-10-09T16:17:01;20.77;;;8.10;;
26271;SDS011;13997;48.902;12.472;2023-10-09T16:19:27;17.48;;;7.22;;
26271;SDS011;13997;48.902;12.472;2023-10-09T16:21:57;19.95;;;7.00;;
26271;SDS011;13997;48.902;12.472;2023-10-09T16:24:28;20.60;;;7.55;;
26271;SDS011;13997;48.902;12.472;2023-10-09T16:26:57;23.02;;;7.78;;
26271;SDS011;13997;48.902;12.472;2023-10-09T16:29:24;27.33;;;8.18;;
26271;SDS011;13997;48.902;12.472;2023-10-09T16:31:50;29.15;;;7.68;;
26271;SDS011;13997;48.902;12.472;2023-10-09T16:34:19;24.65;;;8.35;;
26271;SDS011;13997;48.902;12.472;2023-10-09T16:36:45;22.15;;;9.35;;
26271;SDS011;13997;48.902;12.472;2023-10-09T16:39:10;32.65;;;11.07;;
26271;SDS011;13997;48.902;12.472;2023-10-09T16:41:44;21.52;;;9.90;;
26271;SDS011;13997;48.902;12.472;2023-10-09T16:44:11;25.08;;;10.65;;
26271;SDS011;13997;48.902;12.472;2023-10-09T16:46:41;24.60;;;9.73;;
26271;SDS011;13997;48.902;12.472;2023-10-09T16:49:10;17.83;;;9.98;;
26271;SDS011;13997;48.902;12.472;2023-10-09T16:51:38;24.70;;;9.35;;
26271;SDS011;13997;48.902;12.472;2023-10-09T16:54:07;18.75;;;7.95;;
26271;SDS011;13997;48.902;12.472;2023-10-09T16:56:39;19.40;;;8.23;;
26271;SDS011;13997;48.902;12.472;2023-10-09T16:59:08;21.52;;;8.05;;
26271;SDS011;13997;48.902;12.472;2023-10-09T17:01:43;22.33;;;7.57;;
26271;SDS011;13997;48.902;12.472;2023-10-09T17:04:09;19.23;;;7.43;;
26271;SDS011;13997;48.902;12.472;2023-10-09T17:06:44;25.95;;;7.75;;
26271;SDS011;13997;48.902;12.472;2023-10-09T17:09:12;18.80;;;7.68;;
26271;SDS011;13997;48.902;12.472;2023-10-09T17:11:38;18.33;;;8.15;;
26271;SDS011;13997;48.902;12.472;2023-10-09T17:14:04;20.55;;;7.25;;
26271;SDS011;13997;48.902;12.472;2023-10-09T17:16:37;15.27;;;7.25;;
26271;SDS011;13997;48.902;12.472;2023-10-09T17:19:06;18.25;;;7.20;;
26271;SDS011;13997;48.902;12.472;2023-10-09T17:21:32;15.38;;;5.88;;
26271;SDS011;13997;48.902;12.472;2023-10-09T17:24:01;19.45;;;6.22;;
26271;SDS011;13997;48.902;12.472;2023-10-09T17:26:27;17.75;;;6.05;;
26271;SDS011;13997;48.902;12.472;2023-10-09T17:28:54;12.40;;;5.25;;
26271;SDS011;13997;48.902;12.472;2023-10-09T17:31:23;21.33;;;6.50;;
26271;SDS011;13997;48.902;12.472;2023-10-09T17:33:51;24.35;;;7.22;;
26271;SDS011;13997;48.902;12.472;2023-10-09T17:36:19;26.20;;;10.38;;
26271;SDS011;13997;48.902;12.472;2023-10-09T17:38:45;19.42;;;8.23;;
26271;SDS011;13997;48.902;12.472;2023-10-09T17:41:17;21.75;;;9.30;;
26271;SDS011;13997;48.902;12.472;2023-10-09T17:43:46;20.65;;;9.05;;
26271;SDS011;13997;48.902;12.472;2023-10-09T17:46:19;21.70;;;8.40;;
26271;SDS011;13997;48.902;12.472;2023-10-09T17:48:45;17.52;;;7.90;;
26271;SDS011;13997;48.902;12.472;2023-10-09T17:51:16;18.50;;;8.18;;
26271;SDS011;13997;48.902;12.472;2023-10-09T17:53:43;18.65;;;7.10;;
26271;SDS011;13997;48.902;12.472;2023-10-09T17:56:11;14.95;;;6.75;;